Time;durP1;ratioP1;P1;durP2;ratioP2;P2;SDS_P1;SDS_P2;PMS_P1;PMS_P2;Temp;Humidity;BMP_temperature;BMP_pressure;BME280_temperature;BME280_humidity;BME280_pressure;Samples;Min_cycle;Max_cycle;Signal;HPM_P1;HPM_P2
2022/08/13 00:01:45;;;;;;;2.05;0.75;;;15.10;99.90;;;;;;5024276;28;20199;-85
2022/08/13 00:04:17;;;;;;;1.10;0.80;;;15.10;99.90;;;;;;5021344;28;20190;-83
2022/08/13 00:09:39;;;;;;;1.55;0.90;;;15.10;99.90;;;;;;5023201;28;20674;-84
2022/08/13 00:15:03;;;;;;;0.98;0.80;;;15.20;99.90;;;;;;5034213;28;20244;-82
2022/08/13 00:17:33;;;;;;;1.88;0.80;;;15.30;99.90;;;;;;5033946;28;20186;-74
2022/08/13 00:20:04;;;;;;;0.85;0.60;;;15.20;99.90;;;;;;5033609;28;20214;-70
2022/08/13 00:22:35;;;;;;;0.93;0.70;;;15.20;99.90;;;;;;5031436;28;20209;-84
2022/08/13 00:25:09;;;;;;;1.45;0.65;;;15.10;99.90;;;;;;5032698;28;20253;-78
2022/08/13 00:27:47;;;;;;;3.33;0.70;;;15.10;99.90;;;;;;5034094;28;20212;-81
2022/08/13 00:30:20;;;;;;;1.30;0.70;;;15.10;99.90;;;;;;5032728;28;20275;-82
2022/08/13 00:32:52;;;;;;;1.08;0.70;;;15.10;99.90;;;;;;5034124;28;20218;-73
2022/08/13 00:35:23;;;;;;;0.95;0.60;;;15.10;99.90;;;;;;5031673;28;20218;-83
2022/08/13 00:37:55;;;;;;;1.10;0.60;;;15.10;99.90;;;;;;5033600;28;20198;-73
2022/08/13 00:40:27;;;;;;;0.95;0.63;;;15.10;99.90;;;;;;5033855;28;20301;-72
2022/08/13 00:43:03;;;;;;;1.10;0.60;;;15.10;99.90;;;;;;5027055;28;20232;-71
2022/08/13 00:45:37;;;;;;;0.85;0.80;;;15.10;99.90;;;;;;5018663;28;20186;-74
2022/08/13 00:50:56;;;;;;;1.65;0.60;;;15.20;99.90;;;;;;5025758;28;20197;-74
2022/08/13 00:53:30;;;;;;;1.58;0.90;;;15.30;99.90;;;;;;5024406;28;20187;-74
2022/08/13 00:56:02;;;;;;;1.40;0.80;;;15.40;99.90;;;;;;5021093;28;20196;-72
2022/08/13 00:58:33;;;;;;;3.08;0.80;;;15.50;99.90;;;;;;5031983;28;20182;-72
2022/08/13 01:01:07;;;;;;;1.17;0.80;;;15.60;99.90;;;;;;5027889;28;20642;-78
2022/08/13 01:03:41;;;;;;;0.68;0.68;;;15.60;99.90;;;;;;5030226;28;20197;-70
2022/08/13 01:06:12;;;;;;;1.10;0.68;;;15.70;99.90;;;;;;5031845;28;20667;-73
2022/08/13 01:08:42;;;;;;;1.05;0.60;;;15.80;99.90;;;;;;5023668;28;20186;-70
2022/08/13 01:11:15;;;;;;;1.15;0.60;;;16.20;99.90;;;;;;5024403;28;20194;-69
2022/08/13 01:13:47;;;;;;;1.00;0.60;;;16.50;99.90;;;;;;5024429;28;20194;-70
2022/08/13 01:16:19;;;;;;;0.82;0.60;;;16.60;99.90;;;;;;5028880;28;20186;-70
2022/08/13 01:18:52;;;;;;;0.40;0.40;;;16.60;99.90;;;;;;5021567;28;20282;-71
2022/08/13 01:21:24;;;;;;;0.40;0.40;;;16.60;99.90;;;;;;5029879;28;20613;-71
2022/08/13 01:23:58;;;;;;;0.40;0.40;;;16.60;99.90;;;;;;5033113;28;20194;-69
2022/08/13 01:26:32;;;;;;;0.47;0.43;;;16.60;99.90;;;;;;5033219;28;20200;-70
2022/08/13 01:29:05;;;;;;;3.10;0.63;;;16.60;99.90;;;;;;5033256;28;20196;-70
2022/08/13 01:31:36;;;;;;;0.82;0.50;;;16.60;99.90;;;;;;5033203;28;20199;-69
2022/08/13 01:34:07;;;;;;;1.20;0.50;;;16.70;99.90;;;;;;5031131;28;20213;-70
2022/08/13 01:36:39;;;;;;;0.50;0.50;;;16.90;99.90;;;;;;5015793;28;20280;-70
2022/08/13 01:39:12;;;;;;;1.15;0.60;;;17.00;99.90;;;;;;5031121;28;20241;-70
2022/08/13 01:41:43;;;;;;;0.52;0.40;;;17.10;99.90;;;;;;5029773;28;20203;-71
2022/08/13 01:44:14;;;;;;;2.45;0.68;;;17.20;99.90;;;;;;5032434;28;20191;-74
2022/08/13 01:52:16;;;;;;;0.50;0.50;;;17.40;99.90;;;;;;5032746;28;20205;-70
2022/08/13 01:54:48;;;;;;;0.60;0.60;;;17.50;99.90;;;;;;5031856;28;20568;-69
2022/08/13 01:57:20;;;;;;;0.75;0.40;;;17.50;99.90;;;;;;5032609;28;20194;-69
2022/08/13 01:59:53;;;;;;;0.50;0.50;;;17.30;99.90;;;;;;5032763;28;20220;-75
2022/08/13 02:02:27;;;;;;;0.65;0.50;;;17.00;99.90;;;;;;5029709;28;20531;-71
2022/08/13 02:04:58;;;;;;;1.10;0.52;;;16.80;99.90;;;;;;5023837;28;20191;-75
2022/08/13 02:07:29;;;;;;;1.15;0.40;;;16.90;99.90;;;;;;5012864;28;20197;-87
2022/08/13 02:10:02;;;;;;;0.40;0.40;;;17.00;99.90;;;;;;5029465;28;20199;-82
2022/08/13 02:12:33;;;;;;;0.55;0.35;;;17.20;99.90;;;;;;5032695;28;20198;-82
2022/08/13 02:15:05;;;;;;;0.43;0.32;;;17.40;99.90;;;;;;5032413;28;20191;-84
2022/08/13 02:17:40;;;;;;;0.30;0.30;;;17.30;99.90;;;;;;5032508;28;20664;-80
2022/08/13 02:20:14;;;;;;;0.30;0.30;;;17.30;99.90;;;;;;5031774;28;20284;-81
2022/08/13 02:22:45;;;;;;;0.30;0.30;;;17.40;99.90;;;;;;5032013;28;20251;-73
2022/08/13 02:25:20;;;;;;;0.98;0.40;;;17.50;99.90;;;;;;5026014;28;20244;-72
2022/08/13 02:27:55;;;;;;;0.98;0.30;;;17.70;99.90;;;;;;5031635;28;20193;-73
2022/08/13 02:30:27;;;;;;;0.65;0.30;;;17.80;99.90;;;;;;5029949;28;20190;-74
2022/08/13 02:33:03;;;;;;;0.32;0.30;;;17.60;99.90;;;;;;5032797;28;20198;-77
2022/08/13 02:35:35;;;;;;;0.30;0.30;;;17.40;99.90;;;;;;5019558;28;20268;-73
2022/08/13 02:38:07;;;;;;;0.30;0.30;;;17.50;99.90;;;;;;5032197;28;20284;-75
2022/08/13 02:43:26;;;;;;;0.55;0.30;;;17.80;99.90;;;;;;5015447;28;20674;-70
2022/08/13 02:45:58;;;;;;;0.30;0.28;;;18.00;99.90;;;;;;5050995;28;20598;-72
2022/08/13 02:48:29;;;;;;;0.50;0.20;;;18.30;99.90;;;;;;5041259;28;20197;-74
2022/08/13 02:51:00;;;;;;;0.40;0.30;;;18.20;99.90;;;;;;5026983;28;20199;-72
2022/08/13 02:53:32;;;;;;;0.38;0.30;;;18.00;99.90;;;;;;5045143;28;20678;-80
2022/08/13 02:56:05;;;;;;;1.17;0.30;;;17.70;99.90;;;;;;5043578;28;20198;-79
2022/08/13 02:58:36;;;;;;;0.35;0.30;;;17.40;99.90;;;;;;5031090;28;20198;-81
2022/08/13 03:01:10;;;;;;;1.00;0.20;;;17.40;99.90;;;;;;5027926;28;20213;-80
2022/08/13 03:03:41;;;;;;;0.25;0.25;;;17.30;99.90;;;;;;5038727;28;20259;-74
2022/08/13 03:06:12;;;;;;;0.40;0.22;;;17.30;99.90;;;;;;5039776;28;20231;-78
2022/08/13 03:08:43;;;;;;;0.63;0.28;;;17.30;99.90;;;;;;5033667;28;20205;-77
2022/08/13 03:11:16;;;;;;;0.65;0.38;;;17.40;99.90;;;;;;5047572;28;20194;-76
2022/08/13 03:13:50;;;;;;;1.88;0.40;;;17.50;99.90;;;;;;5035337;28;20582;-77
2022/08/13 03:16:24;;;;;;;0.47;0.47;;;17.50;99.90;;;;;;5035207;28;20527;-79
2022/08/13 03:18:56;;;;;;;1.98;0.30;;;17.50;99.90;;;;;;5039870;28;20206;-74
2022/08/13 03:21:29;;;;;;;0.30;0.28;;;17.30;99.90;;;;;;5050638;28;20219;-79
2022/08/13 03:24:00;;;;;;;0.82;0.40;;;17.10;99.90;;;;;;5035653;28;20201;-80
2022/08/13 03:26:33;;;;;;;0.20;0.20;;;16.90;99.90;;;;;;5035390;28;20191;-79
2022/08/13 03:29:05;;;;;;;0.38;0.30;;;16.80;99.90;;;;;;5049628;28;20206;-79
2022/08/13 03:31:37;;;;;;;0.43;0.40;;;16.80;99.90;;;;;;5055038;28;20193;-72
2022/08/13 03:34:08;;;;;;;0.40;0.40;;;17.00;99.90;;;;;;5037009;28;20256;-74
2022/08/13 03:36:39;;;;;;;1.88;1.55;;;17.10;99.90;;;;;;5035570;28;20206;-79
2022/08/13 03:39:13;;;;;;;6.82;4.88;;;17.30;99.90;;;;;;5032813;28;20272;-81
2022/08/13 03:41:45;;;;;;;2.45;2.03;;;17.60;99.90;;;;;;5035622;28;20217;-77
2022/08/13 03:44:17;;;;;;;1.50;1.20;;;17.70;99.90;;;;;;5032506;28;20273;-79
2022/08/13 03:46:48;;;;;;;1.92;0.88;;;17.90;99.90;;;;;;5034496;28;20202;-71
2022/08/13 03:49:19;;;;;;;0.75;0.70;;;17.90;99.90;;;;;;5034428;28;20197;-75
2022/08/13 03:51:50;;;;;;;0.50;0.50;;;18.00;99.90;;;;;;5035853;28;20649;-74
2022/08/13 03:54:21;;;;;;;0.77;0.40;;;18.00;99.90;;;;;;5034570;28;20182;-70
2022/08/13 03:56:53;;;;;;;0.80;0.47;;;18.00;99.90;;;;;;5033983;28;20266;-82
2022/08/13 03:59:25;;;;;;;0.73;0.30;;;18.00;99.90;;;;;;5033073;28;20199;-82
2022/08/13 04:01:56;;;;;;;0.20;0.20;;;18.20;99.90;;;;;;5035596;28;20262;-79
2022/08/13 04:04:27;;;;;;;1.70;0.20;;;18.30;99.90;;;;;;5034479;28;20256;-77
2022/08/13 04:06:59;;;;;;;0.75;0.20;;;18.30;99.90;;;;;;5035518;28;20198;-78
2022/08/13 04:09:30;;;;;;;0.43;0.17;;;18.40;99.90;;;;;;5034069;28;20240;-78
2022/08/13 04:12:03;;;;;;;0.20;0.20;;;18.40;99.90;;;;;;5034161;28;20212;-79
2022/08/13 04:14:34;;;;;;;0.82;0.20;;;18.40;99.90;;;;;;5035552;28;20202;-75
2022/08/13 04:17:05;;;;;;;0.75;0.20;;;18.40;99.90;;;;;;5033706;28;20201;-75
2022/08/13 04:19:36;;;;;;;0.22;0.22;;;18.40;99.90;;;;;;5037247;28;20205;-78
2022/08/13 04:22:10;;;;;;;0.30;0.30;;;18.50;99.90;;;;;;5052155;28;20213;-79
2022/08/13 04:24:40;;;;;;;0.40;0.20;;;18.40;99.90;;;;;;5052202;28;20189;-73
2022/08/13 04:27:13;;;;;;;0.30;0.20;;;18.50;99.90;;;;;;5033135;28;20194;-77
2022/08/13 04:29:44;;;;;;;0.47;0.20;;;18.50;99.90;;;;;;5034765;28;20194;-80
2022/08/13 04:32:15;;;;;;;0.22;0.20;;;18.50;99.90;;;;;;5049765;28;20206;-81
2022/08/13 04:34:45;;;;;;;0.22;0.22;;;18.50;99.90;;;;;;5023354;28;20241;-77
2022/08/13 04:37:16;;;;;;;0.38;0.28;;;18.50;99.90;;;;;;5029846;28;20202;-80
2022/08/13 04:39:47;;;;;;;0.52;0.20;;;18.40;99.90;;;;;;5033878;28;20230;-74
2022/08/13 04:42:20;;;;;;;0.20;0.20;;;18.50;99.90;;;;;;5029708;28;20211;-77
2022/08/13 04:44:50;;;;;;;0.20;0.20;;;18.50;99.90;;;;;;5028600;28;20206;-79
2022/08/13 04:47:21;;;;;;;0.32;0.28;;;18.40;99.90;;;;;;5034002;28;20198;-81
2022/08/13 04:49:52;;;;;;;0.22;0.22;;;18.30;99.90;;;;;;5033820;28;20194;-77
2022/08/13 04:52:23;;;;;;;0.25;0.25;;;18.30;99.90;;;;;;5033798;28;20201;-81
2022/08/13 04:54:53;;;;;;;0.40;0.28;;;18.40;99.90;;;;;;5033078;28;20199;-80
2022/08/13 04:57:26;;;;;;;0.30;0.25;;;18.40;99.90;;;;;;5033351;28;20191;-76
2022/08/13 04:59:57;;;;;;;0.30;0.25;;;18.50;99.90;;;;;;5049964;28;20201;-74
2022/08/13 05:02:28;;;;;;;1.73;0.40;;;18.60;99.90;;;;;;5053648;28;20222;-72
2022/08/13 05:04:58;;;;;;;1.25;0.30;;;18.60;99.90;;;;;;5050033;28;20183;-71
2022/08/13 05:07:29;;;;;;;0.57;0.20;;;18.60;99.90;;;;;;5032817;28;20203;-80
2022/08/13 05:10:00;;;;;;;0.20;0.20;;;18.50;99.90;;;;;;5038371;28;20200;-82
2022/08/13 05:12:37;;;;;;;0.40;0.30;;;18.30;99.90;;;;;;5032846;28;20187;-80
2022/08/13 05:15:09;;;;;;;1.70;0.20;;;18.30;99.90;;;;;;5038311;28;20194;-79
2022/08/13 05:17:39;;;;;;;0.45;0.30;;;18.40;99.90;;;;;;5046902;28;20213;-80
2022/08/13 05:20:15;;;;;;;0.63;0.38;;;18.50;99.90;;;;;;5044711;28;20193;-81
2022/08/13 05:22:45;;;;;;;0.88;0.32;;;18.40;99.90;;;;;;5032834;28;20268;-81
2022/08/13 05:25:16;;;;;;;0.20;0.20;;;18.40;99.90;;;;;;5032558;28;20197;-79
2022/08/13 05:27:49;;;;;;;0.20;0.20;;;18.30;99.90;;;;;;5031003;28;20190;-81
2022/08/13 05:30:20;;;;;;;0.22;0.20;;;18.10;99.90;;;;;;5032654;28;20677;-78
2022/08/13 05:32:51;;;;;;;0.70;0.40;;;18.00;99.90;;;;;;5033992;28;20212;-76
2022/08/13 05:35:22;;;;;;;0.70;0.28;;;17.90;99.90;;;;;;5027211;28;20222;-81
2022/08/13 05:37:52;;;;;;;0.47;0.30;;;17.80;99.90;;;;;;5030227;28;20194;-81
2022/08/13 05:40:23;;;;;;;0.57;0.32;;;17.80;99.90;;;;;;5034573;28;20230;-81
2022/08/13 05:42:59;;;;;;;0.38;0.30;;;17.60;99.90;;;;;;5032250;28;20610;-80
2022/08/13 05:45:30;;;;;;;2.45;0.30;;;17.60;99.90;;;;;;5046886;28;20610;-80
2022/08/13 05:48:01;;;;;;;0.30;0.30;;;17.50;99.90;;;;;;5017106;28;20278;-82
2022/08/13 05:50:33;;;;;;;0.40;0.40;;;17.40;99.90;;;;;;5035936;28;20190;-81
2022/08/13 05:53:09;;;;;;;0.28;0.28;;;17.40;99.90;;;;;;5034365;28;20273;-76
2022/08/13 05:55:41;;;;;;;0.32;0.30;;;17.50;99.90;;;;;;5047163;28;20558;-82
2022/08/13 05:58:14;;;;;;;1.35;0.52;;;17.60;99.90;;;;;;5032837;28;20540;-84
2022/08/13 06:03:32;;;;;;;1.02;0.50;;;17.60;99.90;;;;;;5052453;28;20262;-77
2022/08/13 06:06:05;;;;;;;0.75;0.30;;;17.70;99.90;;;;;;5051413;28;20193;-82
2022/08/13 06:08:38;;;;;;;0.60;0.38;;;17.90;99.90;;;;;;5051767;28;20288;-81
2022/08/13 06:11:11;;;;;;;1.17;0.45;;;18.00;99.90;;;;;;5052462;28;20199;-80
2022/08/13 06:13:44;;;;;;;0.40;0.25;;;18.10;99.90;;;;;;5049932;28;20225;-77
2022/08/13 06:16:17;;;;;;;0.98;0.30;;;18.10;99.90;;;;;;5046936;28;20203;-81
2022/08/13 06:18:49;;;;;;;0.60;0.38;;;18.00;99.90;;;;;;5044398;28;20197;-80
2022/08/13 06:21:21;;;;;;;0.30;0.30;;;17.90;99.90;;;;;;5040168;28;20217;-80
2022/08/13 06:23:52;;;;;;;0.30;0.30;;;17.80;99.90;;;;;;5052380;28;20203;-79
2022/08/13 06:26:24;;;;;;;2.17;0.20;;;17.70;99.90;;;;;;5046337;28;20192;-75
2022/08/13 06:28:57;;;;;;;0.98;0.50;;;17.60;99.90;;;;;;5036867;28;20209;-77
2022/08/13 06:31:30;;;;;;;0.60;0.45;;;17.60;99.90;;;;;;5031442;28;20193;-81
2022/08/13 06:34:01;;;;;;;5.68;4.03;;;17.60;99.90;;;;;;5027423;28;20223;-79
2022/08/13 06:36:33;;;;;;;13.60;9.77;;;17.60;99.90;;;;;;5028516;28;20198;-82
2022/08/13 06:39:06;;;;;;;15.48;11.50;;;17.60;99.90;;;;;;5029410;28;20233;-82
2022/08/13 06:41:37;;;;;;;9.52;6.78;;;17.50;99.90;;;;;;5034452;28;20233;-82
2022/08/13 06:44:11;;;;;;;1.30;1.13;;;17.50;99.90;;;;;;5035969;28;20196;-83
2022/08/13 06:46:42;;;;;;;5.72;4.55;;;17.50;99.90;;;;;;5033059;28;20274;-81
2022/08/13 06:49:13;;;;;;;4.30;3.42;;;17.40;99.90;;;;;;5034025;28;20202;-83
2022/08/13 06:51:44;;;;;;;3.53;2.38;;;17.40;99.90;;;;;;5035834;28;20206;-84
2022/08/13 06:54:15;;;;;;;1.88;1.30;;;17.30;99.90;;;;;;5036412;28;20199;-82
2022/08/13 06:56:46;;;;;;;1.20;0.90;;;17.30;99.90;;;;;;5042968;28;20198;-82
2022/08/13 06:59:21;;;;;;;1.55;0.85;;;17.20;99.90;;;;;;5041382;28;20202;-81
2022/08/13 07:01:57;;;;;;;2.35;1.17;;;17.20;99.90;;;;;;5034858;28;20766;-84
2022/08/13 07:04:28;;;;;;;0.75;0.60;;;17.10;99.90;;;;;;5045924;28;20208;-82
2022/08/13 07:07:00;;;;;;;0.95;0.60;;;16.80;99.90;;;;;;5035347;28;20212;-84
2022/08/13 07:09:33;;;;;;;1.55;0.80;;;16.80;99.90;;;;;;5035299;28;20556;-83
2022/08/13 07:12:04;;;;;;;1.05;0.60;;;16.70;99.90;;;;;;5036146;28;20198;-85
2022/08/13 07:14:37;;;;;;;0.90;0.60;;;16.60;99.90;;;;;;5044399;28;20202;-85
2022/08/13 07:17:08;;;;;;;0.98;0.65;;;16.50;99.90;;;;;;5055706;28;20353;-86
2022/08/13 07:19:39;;;;;;;1.40;0.73;;;16.50;99.90;;;;;;5046357;28;20569;-84
2022/08/13 07:22:09;;;;;;;3.28;0.93;;;16.40;99.90;;;;;;5035381;28;20291;-88
2022/08/13 07:24:41;;;;;;;0.80;0.70;;;16.30;99.90;;;;;;5033864;28;20201;-83
2022/08/13 07:27:12;;;;;;;1.45;0.82;;;16.30;99.90;;;;;;5035297;28;20194;-80
2022/08/13 07:29:46;;;;;;;3.42;1.00;;;16.30;99.90;;;;;;5042309;28;20201;-84
2022/08/13 07:32:16;;;;;;;1.35;0.93;;;16.20;99.90;;;;;;5055669;28;20583;-83
2022/08/13 07:34:48;;;;;;;1.90;0.98;;;16.10;99.90;;;;;;5032352;28;20890;-83
2022/08/13 07:37:23;;;;;;;1.90;1.10;;;16.10;99.90;;;;;;5033075;28;20672;-81
2022/08/13 07:39:53;;;;;;;2.65;0.98;;;16.00;99.90;;;;;;5028694;28;20230;-81
2022/08/13 07:42:25;;;;;;;1.90;1.23;;;16.00;99.90;;;;;;5033430;28;20210;-82
2022/08/13 07:44:58;;;;;;;1.95;1.23;;;15.90;99.90;;;;;;5037129;28;20198;-80
2022/08/13 07:47:31;;;;;;;2.85;1.10;;;15.80;99.90;;;;;;5034713;28;20199;-84
2022/08/13 07:50:05;;;;;;;1.63;1.15;;;15.80;99.90;;;;;;5039426;28;20198;-79
2022/08/13 07:52:36;;;;;;;2.03;1.10;;;15.80;99.90;;;;;;5041725;28;20560;-85
2022/08/13 07:55:07;;;;;;;2.20;1.10;;;15.70;99.90;;;;;;5034743;28;20194;-85
2022/08/13 07:57:47;;;;;;;2.20;1.20;;;15.70;99.90;;;;;;5033604;28;20194;-83
2022/08/13 08:00:24;;;;;;;2.25;1.00;;;15.60;99.90;;;;;;5023646;28;20198;-82
2022/08/13 08:03:03;;;;;;;2.10;1.00;;;15.60;99.90;;;;;;5046614;28;20217;-84
2022/08/13 08:05:35;;;;;;;2.10;1.00;;;15.50;99.90;;;;;;5024236;28;20638;-82
2022/08/13 08:08:06;;;;;;;1.95;0.90;;;15.50;99.90;;;;;;5028878;28;20205;-84
2022/08/13 08:10:39;;;;;;;2.10;1.20;;;15.50;99.90;;;;;;5029986;28;20284;-85
2022/08/13 08:13:11;;;;;;;2.38;1.13;;;15.40;99.90;;;;;;5026147;28;20199;-82
2022/08/13 08:15:46;;;;;;;2.13;1.20;;;15.30;99.90;;;;;;5032503;28;20652;-79
2022/08/13 08:18:19;;;;;;;2.78;1.30;;;15.30;99.90;;;;;;5031473;28;20194;-82
2022/08/13 08:20:50;;;;;;;3.10;1.60;;;15.20;99.90;;;;;;5025987;28;20198;-82
2022/08/13 08:23:24;;;;;;;4.57;1.85;;;15.20;99.90;;;;;;5028862;28;20220;-82
2022/08/13 08:25:56;;;;;;;3.25;1.80;;;15.20;99.90;;;;;;5033668;28;20212;-82
2022/08/13 08:28:27;;;;;;;3.78;1.70;;;15.10;99.90;;;;;;5033236;28;20202;-82
2022/08/13 08:31:00;;;;;;;3.03;1.65;;;15.10;99.90;;;;;;5029885;28;20589;-82
2022/08/13 08:33:31;;;;;;;2.72;1.60;;;15.00;99.90;;;;;;5028891;28;20258;-83
2022/08/13 08:36:04;;;;;;;4.15;1.70;;;15.00;99.90;;;;;;5025539;28;20199;-83
2022/08/13 08:44:09;;;;;;;3.40;1.60;;;14.80;99.90;;;;;;5031865;28;20244;-85
2022/08/13 08:46:43;;;;;;;3.55;1.90;;;14.70;99.90;;;;;;5021538;28;20198;-85
2022/08/13 08:49:14;;;;;;;3.63;1.70;;;14.70;99.90;;;;;;5024015;28;20207;-84
2022/08/13 08:51:46;;;;;;;3.67;1.80;;;14.60;99.90;;;;;;5022543;28;20198;-85
2022/08/13 08:54:17;;;;;;;4.57;1.80;;;14.50;99.90;;;;;;5029514;28;20201;-83
2022/08/13 08:56:48;;;;;;;3.50;1.70;;;14.40;99.90;;;;;;5032190;28;20201;-83
2022/08/13 08:59:20;;;;;;;2.83;1.70;;;14.30;99.90;;;;;;5033203;28;20198;-82
2022/08/13 09:01:55;;;;;;;3.63;1.92;;;14.20;99.90;;;;;;5027946;28;20222;-82
2022/08/13 09:04:28;;;;;;;4.30;2.22;;;14.30;99.90;;;;;;5032642;28;20197;-83
2022/08/13 09:06:59;;;;;;;5.47;2.53;;;14.20;99.90;;;;;;5040386;28;20197;-76
2022/08/13 09:09:30;;;;;;;5.90;2.55;;;14.20;99.90;;;;;;5033402;28;20558;-78
2022/08/13 09:12:02;;;;;;;4.70;2.42;;;14.10;99.90;;;;;;5044474;28;20201;-81
2022/08/13 09:14:33;;;;;;;4.63;2.20;;;14.00;99.90;;;;;;5050110;28;20657;-83
2022/08/13 09:17:05;;;;;;;3.13;1.90;;;13.90;99.90;;;;;;5043251;28;20198;-82
2022/08/13 09:19:38;;;;;;;1.83;1.50;;;13.80;99.90;;;;;;5035034;28;20206;-82
2022/08/13 09:22:08;;;;;;;3.72;1.80;;;13.70;99.90;;;;;;5031834;28;20211;-82
2022/08/13 09:24:46;;;;;;;2.28;1.45;;;13.60;99.90;;;;;;5042179;28;20206;-83
2022/08/13 09:27:20;;;;;;;5.70;1.50;;;13.50;99.90;;;;;;5046640;28;20211;-82
2022/08/13 09:29:51;;;;;;;3.33;1.80;;;13.50;99.90;;;;;;5027644;28;20198;-82
2022/08/13 09:32:25;;;;;;;1.98;1.60;;;13.40;99.90;;;;;;5041258;28;20679;-81
2022/08/13 09:34:56;;;;;;;3.33;2.00;;;13.40;99.90;;;;;;5021080;28;20214;-78
2022/08/13 09:37:27;;;;;;;3.95;2.10;;;13.30;99.90;;;;;;5029697;28;20200;-83
2022/08/13 09:40:04;;;;;;;3.53;2.10;;;13.30;99.90;;;;;;5031895;28;20616;-83
2022/08/13 09:42:45;;;;;;;4.40;2.30;;;13.30;99.90;;;;;;5050623;28;20217;-83
2022/08/13 09:45:17;;;;;;;5.10;2.80;;;13.30;99.90;;;;;;5027752;28;20194;-81
2022/08/13 09:47:49;;;;;;;5.22;1.92;;;13.20;99.90;;;;;;5031228;28;20224;-82
2022/08/13 09:50:21;;;;;;;3.80;2.35;;;13.20;99.90;;;;;;5031576;28;20194;-77
2022/08/13 09:52:52;;;;;;;2.80;1.70;;;13.20;99.90;;;;;;5041148;28;20306;-82
2022/08/13 09:55:24;;;;;;;3.67;2.05;;;13.20;99.90;;;;;;5047337;28;20197;-77
2022/08/13 09:57:59;;;;;;;2.25;1.63;;;13.30;99.90;;;;;;5010228;28;20248;-74
2022/08/13 10:00:32;;;;;;;5.43;1.70;;;13.30;99.90;;;;;;5030559;28;20569;-76
2022/08/13 10:03:10;;;;;;;3.05;1.90;;;13.20;99.90;;;;;;5026286;28;20218;-76
2022/08/13 10:05:41;;;;;;;2.75;2.05;;;13.30;99.90;;;;;;5027650;28;20193;-81
2022/08/13 10:08:18;;;;;;;3.75;2.08;;;13.30;99.90;;;;;;5035070;28;20201;-83
2022/08/13 10:10:49;;;;;;;3.47;2.22;;;13.30;99.90;;;;;;5037696;28;20692;-84
2022/08/13 10:13:20;;;;;;;3.97;2.05;;;13.20;99.90;;;;;;5026561;28;20206;-81
2022/08/13 10:15:51;;;;;;;3.30;2.30;;;13.10;99.90;;;;;;5024936;28;20279;-84
2022/08/13 10:18:26;;;;;;;6.32;2.30;;;13.10;99.90;;;;;;5030814;28;20684;-84
2022/08/13 10:20:56;;;;;;;3.85;2.25;;;13.00;99.90;;;;;;5032624;28;20259;-78
2022/08/13 10:23:27;;;;;;;4.30;2.38;;;12.90;99.90;;;;;;5025573;28;20301;-82
2022/08/13 10:25:59;;;;;;;5.78;3.83;;;12.70;99.90;;;;;;5017200;28;20193;-84
2022/08/13 10:28:31;;;;;;;6.03;3.20;;;12.60;99.90;;;;;;5022699;28;21318;-82
2022/08/13 10:31:02;;;;;;;6.60;3.80;;;12.60;99.90;;;;;;5032719;28;20201;-83
2022/08/13 10:33:35;;;;;;;7.32;3.35;;;12.60;99.90;;;;;;5019765;28;20681;-82
2022/08/13 10:36:07;;;;;;;6.80;3.35;;;12.60;99.90;;;;;;5026721;28;20194;-83
2022/08/13 10:38:38;;;;;;;6.65;3.50;;;12.60;99.90;;;;;;5034759;28;20233;-79
2022/08/13 10:41:09;;;;;;;4.68;2.80;;;12.60;99.90;;;;;;5052356;28;20190;-71
2022/08/13 10:43:40;;;;;;;5.13;3.10;;;12.60;99.90;;;;;;5050451;28;20217;-72
2022/08/13 10:46:16;;;;;;;4.07;2.50;;;12.60;99.90;;;;;;5031823;28;20282;-72
2022/08/13 10:48:50;;;;;;;5.60;3.20;;;12.50;99.90;;;;;;5029751;28;20201;-71
2022/08/13 10:51:21;;;;;;;5.07;2.45;;;12.50;99.90;;;;;;5030754;28;20217;-72
2022/08/13 10:53:58;;;;;;;4.88;2.42;;;12.40;99.90;;;;;;5031637;28;20559;-72
2022/08/13 10:56:30;;;;;;;4.55;2.30;;;12.40;99.90;;;;;;5048166;28;20292;-72
2022/08/13 10:59:02;;;;;;;3.97;2.30;;;12.30;99.90;;;;;;5050427;28;20186;-71
2022/08/13 11:01:34;;;;;;;4.80;2.30;;;12.30;99.90;;;;;;5032585;28;20563;-73
2022/08/13 11:04:07;;;;;;;4.40;2.33;;;12.30;99.90;;;;;;5022750;28;20213;-71
2022/08/13 11:06:39;;;;;;;4.15;2.47;;;12.30;99.90;;;;;;5027141;28;20567;-71
2022/08/13 11:09:10;;;;;;;3.88;2.60;;;12.30;99.90;;;;;;5044308;28;20201;-71
2022/08/13 11:11:41;;;;;;;3.28;2.20;;;12.30;99.90;;;;;;5042032;28;20201;-71
2022/08/13 11:14:13;;;;;;;4.75;2.53;;;12.30;99.90;;;;;;5035298;28;20212;-83
2022/08/13 11:16:59;;;;;;;3.10;2.42;;;12.30;99.90;;;;;;5042295;28;20284;-72
2022/08/13 11:19:34;;;;;;;5.28;2.70;;;12.20;99.90;;;;;;5039462;28;20659;-71
2022/08/13 11:22:04;;;;;;;5.15;2.90;;;12.20;99.90;;;;;;5032043;28;20280;-71
2022/08/13 11:24:35;;;;;;;4.95;2.97;;;12.20;99.90;;;;;;5018222;28;20237;-71
2022/08/13 11:27:06;;;;;;;5.22;2.88;;;12.10;99.90;;;;;;5047966;28;20633;-72
2022/08/13 11:29:37;;;;;;;4.55;2.90;;;12.00;99.90;;;;;;5034590;28;20190;-72
2022/08/13 11:32:08;;;;;;;5.75;2.72;;;12.00;99.90;;;;;;5035397;28;20204;-83
2022/08/13 11:34:41;;;;;;;5.15;3.58;;;12.00;99.90;;;;;;5035893;28;20209;-76
2022/08/13 11:37:12;;;;;;;4.95;3.20;;;11.90;99.90;;;;;;5050019;28;20201;-84
2022/08/13 11:39:43;;;;;;;5.68;3.35;;;11.90;99.90;;;;;;5054245;28;20230;-81
2022/08/13 11:42:13;;;;;;;5.90;3.17;;;11.80;99.90;;;;;;5034586;28;20206;-73
2022/08/13 11:44:44;;;;;;;4.38;3.20;;;11.80;99.90;;;;;;5039005;28;20700;-79
2022/08/13 11:47:15;;;;;;;4.38;3.38;;;11.80;99.90;;;;;;5039224;28;20574;-72
2022/08/13 11:49:48;;;;;;;6.13;3.60;;;11.70;99.90;;;;;;5036981;28;20214;-73
2022/08/13 11:52:18;;;;;;;4.38;3.40;;;11.70;99.90;;;;;;5049040;28;20201;-72
2022/08/13 11:54:49;;;;;;;5.43;3.40;;;11.60;99.90;;;;;;5051977;28;20215;-71
2022/08/13 11:57:20;;;;;;;6.15;3.03;;;11.50;99.90;;;;;;5042323;28;20202;-72
2022/08/13 11:59:50;;;;;;;6.15;3.20;;;11.50;99.90;;;;;;5054588;28;20212;-72
2022/08/13 12:02:21;;;;;;;5.32;3.42;;;11.50;99.90;;;;;;5053594;28;20203;-72
2022/08/13 12:04:54;;;;;;;4.82;3.45;;;11.50;99.90;;;;;;5054540;28;20227;-73
2022/08/13 12:07:25;;;;;;;5.93;3.28;;;11.50;99.90;;;;;;5050218;28;20197;-73
2022/08/13 12:09:56;;;;;;;4.85;3.00;;;11.50;99.90;;;;;;5052768;28;20208;-72
2022/08/13 12:12:27;;;;;;;5.95;3.42;;;11.50;99.90;;;;;;5039898;28;20199;-71
2022/08/13 12:14:58;;;;;;;4.85;3.30;;;11.50;99.90;;;;;;5034611;28;20233;-72
2022/08/13 12:17:29;;;;;;;6.93;3.75;;;11.50;99.90;;;;;;5036793;28;20205;-72
2022/08/13 12:20:02;;;;;;;5.82;3.92;;;11.60;99.90;;;;;;5036532;28;20284;-72
2022/08/13 12:22:33;;;;;;;7.60;4.45;;;11.60;99.90;;;;;;5034213;28;20202;-83
2022/08/13 12:25:03;;;;;;;7.78;4.68;;;11.60;99.90;;;;;;5034991;28;20204;-84
2022/08/13 12:27:34;;;;;;;8.98;4.45;;;11.60;99.90;;;;;;5043019;28;20193;-83
2022/08/13 12:30:05;;;;;;;8.70;4.40;;;11.70;99.90;;;;;;5042459;28;20198;-83
2022/08/13 12:32:36;;;;;;;8.88;4.60;;;11.60;99.90;;;;;;5045909;28;20222;-79
2022/08/13 12:35:10;;;;;;;7.13;4.32;;;11.60;99.90;;;;;;5027297;28;20213;-81
2022/08/13 12:37:44;;;;;;;5.22;3.95;;;11.50;99.90;;;;;;5017675;28;20194;-81
2022/08/13 12:40:15;;;;;;;6.65;4.20;;;11.50;99.90;;;;;;5023228;28;20229;-78
2022/08/13 12:42:46;;;;;;;6.97;4.50;;;11.40;99.90;;;;;;5044565;28;20202;-80
2022/08/13 12:45:17;;;;;;;7.25;4.35;;;11.40;99.90;;;;;;5034084;28;20197;-83
2022/08/13 12:47:48;;;;;;;6.20;4.15;;;11.30;99.90;;;;;;5030591;28;20673;-75
2022/08/13 12:50:21;;;;;;;5.47;4.20;;;11.30;99.90;;;;;;5043999;28;20208;-83
2022/08/13 12:52:52;;;;;;;7.20;4.32;;;11.30;99.90;;;;;;5049442;28;20210;-76
2022/08/13 12:55:23;;;;;;;6.47;4.05;;;11.20;99.90;;;;;;5051019;28;20660;-81
2022/08/13 12:57:55;;;;;;;7.45;4.07;;;11.30;99.90;;;;;;5051232;28;20227;-83
2022/08/13 13:00:26;;;;;;;5.50;3.80;;;11.30;99.90;;;;;;5047673;28;20198;-81
2022/08/13 13:02:57;;;;;;;7.45;3.95;;;11.20;99.90;;;;;;5047945;28;20554;-81
2022/08/13 13:05:29;;;;;;;6.57;3.50;;;11.30;99.90;;;;;;5038643;28;20241;-79
2022/08/13 13:08:00;;;;;;;6.50;3.35;;;11.30;99.90;;;;;;5039198;28;20198;-77
2022/08/13 13:10:31;;;;;;;5.97;3.58;;;11.40;99.90;;;;;;5042572;28;20212;-82
2022/08/13 13:13:02;;;;;;;6.43;3.50;;;11.40;99.90;;;;;;5048962;28;20208;-81
2022/08/13 13:15:32;;;;;;;8.85;3.20;;;11.40;99.90;;;;;;5053323;28;20641;-84
2022/08/13 13:18:03;;;;;;;4.50;2.80;;;11.40;99.90;;;;;;5041803;28;20198;-82
2022/08/13 13:20:36;;;;;;;3.33;2.40;;;11.50;99.90;;;;;;5037064;28;20189;-83
2022/08/13 13:23:07;;;;;;;3.47;2.38;;;11.50;99.90;;;;;;5039511;28;20205;-85
2022/08/13 13:25:40;;;;;;;3.65;2.38;;;11.60;99.90;;;;;;5039671;28;20200;-72
2022/08/13 13:28:11;;;;;;;4.40;2.60;;;11.60;99.90;;;;;;5039714;28;20216;-71
2022/08/13 13:30:42;;;;;;;4.78;2.38;;;11.60;99.90;;;;;;5036804;28;20205;-73
2022/08/13 13:33:14;;;;;;;4.35;2.60;;;11.60;99.90;;;;;;5025251;28;20229;-71
2022/08/13 13:35:48;;;;;;;2.90;2.40;;;11.60;99.90;;;;;;5029215;28;20194;-72